createdAt,value
2022-09-12T00:00:33.224Z,100713.53
2022-09-12T00:03:01.759Z,100707.91
2022-09-12T00:05:30.994Z,100703.28
2022-09-12T00:07:58.857Z,100700.59
2022-09-12T00:10:27.036Z,100706.69
2022-09-12T00:12:54.944Z,100701.16
2022-09-12T00:15:23.064Z,100695.66
2022-09-12T00:17:52.516Z,100694.66
2022-09-12T00:20:20.603Z,100689.56
2022-09-12T00:22:48.464Z,100695.22
2022-09-12T00:25:16.827Z,100693.63
2022-09-12T00:27:44.774Z,100694.59
2022-09-12T00:30:13.300Z,100692.75
2022-09-12T00:32:41.511Z,100686.69
2022-09-12T00:35:10.802Z,100691.22
2022-09-12T00:37:38.747Z,100689.50
2022-09-12T00:40:07.993Z,100685.56
2022-09-12T00:42:35.924Z,100695.13
2022-09-12T00:45:04.147Z,100692.97
2022-09-12T00:47:35.635Z,100698.13
2022-09-12T00:50:08.716Z,100693.47
2022-09-12T00:52:43.378Z,100689.31
2022-09-12T00:55:14.300Z,100688.75
2022-09-12T00:57:50.080Z,100686.19
2022-09-12T01:00:21.236Z,100695.63
2022-09-12T01:02:52.975Z,100687.13
2022-09-12T01:05:22.370Z,100684.44
2022-09-12T01:07:53.339Z,100689.69
2022-09-12T01:10:21.819Z,100685.88
2022-09-12T01:12:49.836Z,100684.75
2022-09-12T01:15:18.225Z,100683.66
2022-09-12T01:18:04.490Z,100678.16
2022-09-12T01:20:48.051Z,100682.41
2022-09-12T01:23:54.815Z,100679.12
2022-09-12T01:26:48.517Z,100681.69
2022-09-12T01:29:37.690Z,100685.59
2022-09-12T01:32:12.026Z,100681.34
2022-09-12T01:34:51.466Z,100681.63
2022-09-12T01:37:28.819Z,100685.44
2022-09-12T01:40:04.248Z,100683.69
2022-09-12T01:42:35.992Z,100683.59
2022-09-12T01:45:10.887Z,100686.38
2022-09-12T01:47:44.965Z,100684.97
2022-09-12T01:50:18.811Z,100682.41
2022-09-12T01:52:51.885Z,100679.59
2022-09-12T01:55:24.962Z,100675.09
2022-09-12T01:57:57.518Z,100677.91
2022-09-12T02:00:25.694Z,100674.50
2022-09-12T02:03:02.303Z,100673.38
2022-09-12T02:05:34.154Z,100673.84
2022-09-12T02:08:08.191Z,100666.66
2022-09-12T02:10:44.123Z,100671.03
2022-09-12T02:13:17.831Z,100661.28
2022-09-12T02:15:50.614Z,100662.12
2022-09-12T02:18:22.004Z,100663.00
2022-09-12T02:20:51.136Z,100658.72
2022-09-12T02:23:23.953Z,100661.53
2022-09-12T02:25:55.713Z,100657.87
2022-09-12T02:28:27.647Z,100646.28
2022-09-12T02:31:05.999Z,100654.19
2022-09-12T02:33:44.791Z,100653.97
2022-09-12T02:36:21.942Z,100648.84
2022-09-12T02:38:50.440Z,100651.06
2022-09-12T02:41:21.304Z,100655.59
2022-09-12T02:43:51.416Z,100648.41
2022-09-12T02:46:23.651Z,100640.34
2022-09-12T02:48:53.026Z,100638.94
2022-09-12T02:51:23.857Z,100646.09
2022-09-12T02:53:52.509Z,100650.87
2022-09-12T02:56:26.540Z,100648.47
2022-09-12T02:58:58.538Z,100650.44
2022-09-12T03:01:50.609Z,100650.97
2022-09-12T03:04:43.624Z,100652.78
2022-09-12T03:07:17.824Z,100650.72
2022-09-12T03:09:53.468Z,100648.09
2022-09-12T03:12:33.320Z,100651.28
2022-09-12T03:15:13.831Z,100653.78
2022-09-12T03:17:53.983Z,100652.31
2022-09-12T03:20:34.870Z,100644.06
2022-09-12T03:23:06.623Z,100642.06
2022-09-12T03:25:39.968Z,100642.56
2022-09-12T03:28:11.468Z,100637.81
2022-09-12T03:30:41.208Z,100650.91
2022-09-12T03:33:12.854Z,100640.69
2022-09-12T03:35:43.052Z,100646.53
2022-09-12T03:38:11.256Z,100638.16
2022-09-12T03:40:40.310Z,100636.69
2022-09-12T03:43:09.357Z,100641.56
2022-09-12T03:45:38.615Z,100634.84
2022-09-12T03:48:07.203Z,100638.03
2022-09-12T03:50:35.576Z,100634.63
2022-09-12T03:53:05.206Z,100636.69
2022-09-12T03:55:33.065Z,100641.59
2022-09-12T03:58:01.223Z,100638.06
2022-09-12T04:00:29.376Z,100640.13
2022-09-12T04:02:58.252Z,100644.03
2022-09-12T04:05:26.860Z,100648.88
2022-09-12T04:07:54.784Z,100642.94
2022-09-12T04:10:24.287Z,100643.91
2022-09-12T04:12:52.110Z,100652.19
2022-09-12T04:15:20.216Z,100653.63
2022-09-12T04:17:48.619Z,100657.63
2022-09-12T04:20:16.650Z,100662.50
2022-09-12T04:22:44.553Z,100657.37
2022-09-12T04:25:13.455Z,100663.81
2022-09-12T04:27:43.024Z,100657.63
2022-09-12T04:30:11.928Z,100659.81
2022-09-12T04:32:41.363Z,100653.97
2022-09-12T04:35:11.255Z,100659.44
2022-09-12T04:37:39.477Z,100654.34
2022-09-12T04:40:08.353Z,100659.69
2022-09-12T04:42:36.408Z,100657.97
2022-09-12T04:45:07.666Z,100658.84
2022-09-12T04:47:35.552Z,100659.91
2022-09-12T04:50:04.311Z,100654.53
2022-09-12T04:52:32.487Z,100655.78
2022-09-12T04:55:00.476Z,100664.03
2022-09-12T04:57:28.383Z,100665.94
2022-09-12T04:59:56.451Z,100663.28
2022-09-12T05:02:25.810Z,100657.84
2022-09-12T05:04:54.250Z,100666.59
2022-09-12T05:07:22.318Z,100665.72
2022-09-12T05:09:50.237Z,100664.88
2022-09-12T05:12:18.887Z,100666.59
2022-09-12T05:14:47.032Z,100663.78
2022-09-12T05:17:14.894Z,100670.97
2022-09-12T05:19:44.185Z,100676.31
2022-09-12T05:22:12.314Z,100674.47
2022-09-12T05:24:47.311Z,100675.22
2022-09-12T05:27:18.086Z,100676.69
2022-09-12T05:29:45.922Z,100679.00
2022-09-12T05:32:13.830Z,100675.84
2022-09-12T05:34:41.928Z,100680.72
2022-09-12T05:37:11.078Z,100681.22
2022-09-12T05:39:38.991Z,100680.72
2022-09-12T05:42:07.265Z,100683.91
2022-09-12T05:44:35.120Z,100685.13
2022-09-12T05:47:03.083Z,100689.84
2022-09-12T05:49:31.185Z,100692.91
2022-09-12T05:51:59.034Z,100700.34
2022-09-12T05:54:31.533Z,100693.41
2022-09-12T05:56:59.962Z,100695.34
2022-09-12T05:59:28.480Z,100696.34
2022-09-12T06:01:56.557Z,100695.56
2022-09-12T06:04:25.485Z,100700.19
2022-09-12T06:06:53.618Z,100703.09
2022-09-12T06:09:21.450Z,100698.94
2022-09-12T06:11:51.792Z,100702.69
2022-09-12T06:14:19.914Z,100705.47
2022-09-12T06:16:48.639Z,100707.38
2022-09-12T06:19:19.107Z,100702.97
2022-09-12T06:21:49.415Z,100700.22
2022-09-12T06:24:17.951Z,100710.22
2022-09-12T06:26:46.916Z,100706.75
2022-09-12T06:29:16.550Z,100701.31
2022-09-12T06:31:45.331Z,100698.72
2022-09-12T06:34:14.941Z,100710.22
2022-09-12T06:36:44.205Z,100703.78
2022-09-12T06:39:14.480Z,100701.72
2022-09-12T06:41:44.296Z,100702.50
2022-09-12T06:44:15.996Z,100697.63
2022-09-12T06:46:46.108Z,100706.88
2022-09-12T06:49:14.757Z,100701.81
2022-09-12T06:51:43.117Z,100702.44
2022-09-12T06:54:13.602Z,100701.03
2022-09-12T06:56:41.915Z,100703.44
2022-09-12T06:59:09.795Z,100696.84
2022-09-12T07:01:37.934Z,100694.84
2022-09-12T07:04:07.581Z,100696.12
2022-09-12T07:06:38.139Z,100697.53
2022-09-12T07:09:08.807Z,100698.75
2022-09-12T07:11:38.661Z,100691.94
2022-09-12T07:14:09.206Z,100694.31
2022-09-12T07:16:37.419Z,100702.94
2022-09-12T07:19:09.135Z,100697.75
2022-09-12T07:21:39.830Z,100704.72
2022-09-12T07:24:10.261Z,100701.22
2022-09-12T07:26:40.369Z,100700.03
2022-09-12T07:29:34.891Z,100700.22
2022-09-12T07:31:57.290Z,100693.84
2022-09-12T07:34:26.420Z,100699.91
2022-09-12T07:36:54.399Z,100693.53
2022-09-12T07:39:22.529Z,100699.53
2022-09-12T07:41:50.404Z,100696.97
2022-09-12T07:44:18.224Z,100698.91
2022-09-12T07:46:46.671Z,100692.56
2022-09-12T07:49:14.573Z,100698.09
2022-09-12T07:51:43.820Z,100699.00
2022-09-12T07:54:11.893Z,100696.16
2022-09-12T07:56:40.810Z,100694.66
2022-09-12T07:59:08.774Z,100695.88
2022-09-12T08:01:37.186Z,100699.09
2022-09-12T08:04:05.908Z,100701.69
2022-09-12T08:06:36.054Z,100695.44
2022-09-12T08:09:06.220Z,100692.06
2022-09-12T08:11:34.871Z,100704.94
2022-09-12T08:14:03.141Z,100694.78
2022-09-12T08:16:33.006Z,100701.19
2022-09-12T08:19:02.238Z,100705.59
2022-09-12T08:21:31.992Z,100704.41
2022-09-12T08:24:01.907Z,100708.81
2022-09-12T08:26:32.755Z,100705.28
2022-09-12T08:29:01.286Z,100710.16
2022-09-12T08:31:29.824Z,100704.94
2022-09-12T08:33:58.692Z,100708.97
2022-09-12T08:36:29.634Z,100704.34
2022-09-12T08:39:00.380Z,100705.37
2022-09-12T08:41:34.899Z,100706.56
2022-09-12T08:44:22.825Z,100696.19
2022-09-12T08:47:03.900Z,100696.97
2022-09-12T08:49:35.626Z,100702.03
2022-09-12T08:52:08.119Z,100697.94
2022-09-12T08:54:36.280Z,100697.72
2022-09-12T08:57:07.078Z,100696.12
2022-09-12T08:59:39.047Z,100700.16
2022-09-12T09:02:24.955Z,100690.59
2022-09-12T09:04:57.227Z,100704.44
2022-09-12T09:07:40.943Z,100692.44
2022-09-12T09:10:19.944Z,100697.56
2022-09-12T09:13:00.809Z,100694.22
2022-09-12T09:15:41.048Z,100688.88
2022-09-12T09:18:17.041Z,100684.03
2022-09-12T09:20:50.234Z,100683.44
2022-09-12T09:23:24.736Z,100695.75
2022-09-12T09:25:57.646Z,100681.09
2022-09-12T09:28:33.309Z,100672.38
2022-09-12T09:31:01.725Z,100675.84
2022-09-12T09:33:35.179Z,100673.88
2022-09-12T09:36:15.029Z,100679.88
2022-09-12T09:38:50.059Z,100671.19
2022-09-12T09:41:31.827Z,100671.53
2022-09-12T09:44:02.833Z,100668.81
2022-09-12T09:46:31.161Z,100665.97
2022-09-12T09:49:03.770Z,100667.94
2022-09-12T09:51:36.373Z,100668.38
2022-09-12T09:54:12.223Z,100668.09
2022-09-12T09:56:42.414Z,100661.56
2022-09-12T09:59:13.698Z,100652.81
2022-09-12T10:01:47.902Z,100651.84
2022-09-12T10:04:21.521Z,100650.63
2022-09-12T10:06:52.839Z,100643.91
2022-09-12T10:09:24.778Z,100649.16
2022-09-12T10:11:54.042Z,100643.72
2022-09-12T10:14:38.877Z,100637.84
2022-09-12T10:17:33.884Z,100645.41
2022-09-12T10:20:21.701Z,100643.09
2022-09-12T10:22:50.458Z,100638.03
2022-09-12T10:25:21.129Z,100640.13
2022-09-12T10:27:55.302Z,100641.16
2022-09-12T10:30:28.695Z,100636.09
2022-09-12T10:33:06.423Z,100635.59
2022-09-12T10:35:45.834Z,100633.00
2022-09-12T10:38:18.815Z,100635.44
2022-09-12T10:40:47.036Z,100630.72
2022-09-12T10:43:25.295Z,100626.84
2022-09-12T10:45:58.654Z,100628.88
2022-09-12T10:48:31.601Z,100630.97
2022-09-12T10:51:00.555Z,100626.78
2022-09-12T10:53:34.322Z,100618.25
2022-09-12T10:56:08.064Z,100622.66
2022-09-12T10:59:18.062Z,100620.56
2022-09-12T11:01:51.373Z,100609.31
2022-09-12T11:04:29.302Z,100614.28
2022-09-12T11:07:22.822Z,100616.87
2022-09-12T11:10:01.052Z,100610.47
2022-09-12T11:12:39.961Z,100610.81
2022-09-12T11:15:34.208Z,100603.25
2022-09-12T11:18:16.095Z,100607.34
2022-09-12T11:20:58.949Z,100606.50
2022-09-12T11:24:11.523Z,100607.88
2022-09-12T11:27:00.514Z,100599.97
2022-09-12T11:29:43.152Z,100601.00
2022-09-12T11:32:51.038Z,100590.47
2022-09-12T11:35:25.745Z,100591.50
2022-09-12T11:38:13.992Z,100593.03
2022-09-12T11:40:47.407Z,100585.41
2022-09-12T11:43:24.648Z,100579.59
2022-09-12T11:45:54.119Z,100588.78
2022-09-12T11:48:38.785Z,100584.75
2022-09-12T11:51:19.072Z,100584.38
2022-09-12T11:53:58.370Z,100585.41
2022-09-12T11:56:26.592Z,100590.75
2022-09-12T11:59:00.407Z,100584.97
2022-09-12T12:01:36.268Z,100583.72
2022-09-12T12:04:12.761Z,100576.44
2022-09-12T12:06:52.085Z,100583.00
2022-09-12T12:09:20.468Z,100580.22
2022-09-12T12:11:52.627Z,100574.50
2022-09-12T12:14:25.559Z,100571.91
2022-09-12T12:16:53.737Z,100574.91
2022-09-12T12:19:36.886Z,100573.75
2022-09-12T12:22:09.988Z,100568.97
2022-09-12T12:24:56.055Z,100565.25
2022-09-12T12:27:26.204Z,100568.06
2022-09-12T12:29:54.560Z,100562.97
2022-09-12T12:32:27.124Z,100567.38
2022-09-12T12:35:32.619Z,100559.78
2022-09-12T12:38:02.847Z,100546.63
2022-09-12T12:40:31.858Z,100557.94
2022-09-12T12:43:03.041Z,100555.47
2022-09-12T12:46:00.899Z,100558.44
2022-09-12T12:48:33.887Z,100552.06
2022-09-12T12:51:40.699Z,100552.88
2022-09-12T12:54:35.699Z,100541.56
2022-09-12T12:57:16.492Z,100542.00
2022-09-12T12:59:49.036Z,100545.37
2022-09-12T13:02:22.130Z,100531.16
2022-09-12T13:04:51.327Z,100535.78
2022-09-12T13:07:28.622Z,100532.00
2022-09-12T13:09:58.875Z,100537.22
2022-09-12T13:12:30.563Z,100534.91
2022-09-12T13:14:59.635Z,100525.19
2022-09-12T13:17:35.798Z,100527.75
2022-09-12T13:20:29.725Z,100529.06
2022-09-12T13:22:59.160Z,100513.38
2022-09-12T13:25:31.346Z,100508.97
2022-09-12T13:28:01.668Z,100511.53
2022-09-12T13:30:32.269Z,100517.44
2022-09-12T13:33:17.974Z,100509.09
2022-09-12T13:36:06.351Z,100504.06
2022-09-12T13:38:44.092Z,100497.34
2022-09-12T13:41:31.956Z,100500.06
2022-09-12T13:44:00.502Z,100497.53
2022-09-12T13:46:31.663Z,100495.59
2022-09-12T13:49:01.781Z,100488.06
2022-09-12T13:51:32.753Z,100485.13
2022-09-12T13:54:04.491Z,100480.06
2022-09-12T13:56:33.984Z,100486.59
2022-09-12T13:59:03.587Z,100481.34
2022-09-12T14:01:40.200Z,100488.47
2022-09-12T14:04:34.271Z,100483.81
2022-09-12T14:07:04.241Z,100479.22
2022-09-12T14:09:38.422Z,100482.13
2022-09-12T14:12:18.225Z,100479.59
2022-09-12T14:14:49.934Z,100470.78
2022-09-12T14:17:20.798Z,100470.41
2022-09-12T14:19:52.574Z,100470.44
2022-09-12T14:22:20.911Z,100471.75
2022-09-12T14:24:51.683Z,100468.00
2022-09-12T14:27:26.154Z,100469.47
2022-09-12T14:30:02.114Z,100462.31
2022-09-12T14:32:30.345Z,100459.16
2022-09-12T14:35:19.401Z,100455.56
2022-09-12T14:37:51.495Z,100450.13
2022-09-12T14:40:21.916Z,100454.53
2022-09-12T14:42:56.022Z,100451.16
2022-09-12T14:45:31.287Z,100446.94
2022-09-12T14:47:59.811Z,100452.16
2022-09-12T14:50:31.194Z,100448.19
2022-09-12T14:53:08.118Z,100440.44
2022-09-12T14:55:45.015Z,100441.22
2022-09-12T14:58:26.242Z,100446.87
2022-09-12T15:00:55.956Z,100443.31
2022-09-12T15:03:27.932Z,100446.87
2022-09-12T15:05:56.359Z,100438.69
2022-09-12T15:08:26.129Z,100440.19
2022-09-12T15:10:53.971Z,100443.09
2022-09-12T15:13:25.798Z,100442.69
2022-09-12T15:15:55.756Z,100437.84
2022-09-12T15:18:25.751Z,100441.19
2022-09-12T15:20:56.780Z,100435.50
2022-09-12T15:23:35.467Z,100436.28
2022-09-12T15:26:04.508Z,100432.25
2022-09-12T15:28:34.683Z,100429.09
2022-09-12T15:31:08.154Z,100427.84
2022-09-12T15:33:36.397Z,100430.72
2022-09-12T15:36:05.018Z,100427.37
2022-09-12T15:38:32.898Z,100432.81
2022-09-12T15:41:01.038Z,100425.88
2022-09-12T15:43:28.911Z,100421.47
2022-09-12T15:45:59.269Z,100426.97
2022-09-12T15:48:27.395Z,100424.91
2022-09-12T15:50:57.618Z,100425.31
2022-09-12T15:53:25.472Z,100427.91
2022-09-12T15:55:53.558Z,100425.00
2022-09-12T15:58:21.483Z,100423.19
2022-09-12T16:00:49.339Z,100422.78
2022-09-12T16:03:23.755Z,100428.88
2022-09-12T16:05:55.966Z,100419.44
2022-09-12T16:08:24.687Z,100409.13
2022-09-12T16:10:55.801Z,100412.69
2022-09-12T16:13:23.921Z,100423.00
2022-09-12T16:15:52.625Z,100417.16
2022-09-12T16:18:21.911Z,100414.25
2022-09-12T16:20:53.366Z,100408.38
2022-09-12T16:23:21.493Z,100396.84
2022-09-12T16:25:57.264Z,100399.97
2022-09-12T16:28:25.535Z,100392.41
2022-09-12T16:30:57.322Z,100399.13
2022-09-12T16:33:27.566Z,100388.44
2022-09-12T16:36:03.982Z,100385.28
2022-09-12T16:38:32.341Z,100378.09
2022-09-12T16:41:03.029Z,100387.75
2022-09-12T16:43:31.073Z,100379.72
2022-09-12T16:46:03.807Z,100383.66
2022-09-12T16:48:33.842Z,100377.06
2022-09-12T16:51:05.057Z,100373.44
2022-09-12T16:53:34.104Z,100369.63
2022-09-12T16:56:02.522Z,100370.59
2022-09-12T16:58:34.928Z,100369.69
2022-09-12T17:01:07.595Z,100367.94
2022-09-12T17:03:37.143Z,100367.19
2022-09-12T17:06:08.655Z,100367.31
2022-09-12T17:08:39.357Z,100362.97
2022-09-12T17:11:09.476Z,100365.94
2022-09-12T17:14:03.219Z,100370.62
2022-09-12T17:16:26.448Z,100368.16
2022-09-12T17:18:55.755Z,100364.16
2022-09-12T17:21:24.577Z,100357.12
2022-09-12T17:23:52.685Z,100357.97
2022-09-12T17:26:20.979Z,100361.78
2022-09-12T17:28:49.583Z,100358.00
2022-09-12T17:31:18.161Z,100357.56
2022-09-12T17:33:46.498Z,100358.75
2022-09-12T17:36:18.272Z,100362.31
2022-09-12T17:38:47.289Z,100358.72
2022-09-12T17:41:17.738Z,100357.25
2022-09-12T17:43:46.784Z,100345.19
2022-09-12T17:46:14.798Z,100351.88
2022-09-12T17:48:43.071Z,100349.63
2022-09-12T17:51:13.023Z,100338.00
2022-09-12T17:53:43.911Z,100344.31
2022-09-12T17:56:12.558Z,100347.41
2022-09-12T17:58:40.496Z,100351.19
2022-09-12T18:01:28.971Z,100353.94
2022-09-12T18:03:58.717Z,100345.84
2022-09-12T18:06:28.617Z,100353.03
2022-09-12T18:09:00.610Z,100357.28
2022-09-12T18:11:28.940Z,100353.41
2022-09-12T18:13:56.860Z,100357.00
2022-09-12T18:16:24.709Z,100353.13
2022-09-12T18:18:53.206Z,100359.22
2022-09-12T18:21:21.275Z,100351.12
2022-09-12T18:23:50.227Z,100353.03
2022-09-12T18:26:19.736Z,100349.50
2022-09-12T18:28:47.603Z,100352.41
2022-09-12T18:31:18.239Z,100357.66
2022-09-12T18:33:47.209Z,100355.66
2022-09-12T18:36:16.350Z,100351.28
2022-09-12T18:38:45.308Z,100344.84
2022-09-12T18:41:15.156Z,100340.12
2022-09-12T18:43:44.991Z,100342.50
2022-09-12T18:46:15.369Z,100345.84
2022-09-12T18:48:45.045Z,100345.87
2022-09-12T18:51:15.595Z,100344.88
2022-09-12T18:53:43.733Z,100346.72
2022-09-12T18:56:13.614Z,100344.84
2022-09-12T18:58:44.282Z,100343.50
2022-09-12T19:01:14.022Z,100349.41
2022-09-12T19:03:42.825Z,100345.69
2022-09-12T19:06:12.144Z,100350.22
2022-09-12T19:08:40.497Z,100342.78
2022-09-12T19:11:09.276Z,100345.16
2022-09-12T19:13:41.346Z,100340.03
2022-09-12T19:16:14.124Z,100336.00
2022-09-12T19:18:42.893Z,100338.34
2022-09-12T19:21:14.652Z,100320.97
2022-09-12T19:23:43.018Z,100328.56
2022-09-12T19:26:13.635Z,100328.87
2022-09-12T19:28:42.292Z,100325.66
2022-09-12T19:31:14.074Z,100319.75
2022-09-12T19:33:44.584Z,100322.94
2022-09-12T19:36:34.011Z,100328.84
2022-09-12T19:39:02.673Z,100320.53
2022-09-12T19:41:31.303Z,100330.12
2022-09-12T19:44:00.348Z,100330.78
2022-09-12T19:46:29.868Z,100323.31
2022-09-12T19:48:57.772Z,100322.28
2022-09-12T19:51:25.696Z,100317.38
2022-09-12T19:53:55.088Z,100323.09
2022-09-12T19:56:23.690Z,100323.53
2022-09-12T19:58:56.122Z,100316.47
2022-09-12T20:01:28.262Z,100318.66
2022-09-12T20:03:58.673Z,100319.81
2022-09-12T20:06:27.591Z,100319.44
2022-09-12T20:08:56.314Z,100322.31
2022-09-12T20:11:25.563Z,100315.22
2022-09-12T20:13:54.472Z,100309.28
2022-09-12T20:16:24.568Z,100311.31
2022-09-12T20:18:58.690Z,100314.34
2022-09-12T20:21:31.425Z,100306.25
2022-09-12T20:24:05.258Z,100313.66
2022-09-12T20:26:34.135Z,100301.19
2022-09-12T20:29:02.478Z,100311.25
2022-09-12T20:31:31.121Z,100309.88
2022-09-12T20:34:00.634Z,100310.91
2022-09-12T20:36:29.305Z,100311.91
2022-09-12T20:39:01.109Z,100312.91
2022-09-12T20:41:31.350Z,100311.34
2022-09-12T20:43:59.754Z,100305.28
2022-09-12T20:46:29.294Z,100308.31
2022-09-12T20:48:58.391Z,100302.25
2022-09-12T20:51:30.244Z,100306.94
2022-09-12T20:53:59.615Z,100295.47
2022-09-12T20:56:29.372Z,100292.09
2022-09-12T20:58:57.576Z,100296.97
2022-09-12T21:01:26.851Z,100297.25
2022-09-12T21:03:55.277Z,100299.25
2022-09-12T21:06:23.142Z,100295.03
2022-09-12T21:08:52.587Z,100296.22
2022-09-12T21:11:21.117Z,100286.59
2022-09-12T21:13:49.104Z,100286.75
2022-09-12T21:16:19.821Z,100279.84
2022-09-12T21:18:48.540Z,100272.91
2022-09-12T21:21:16.424Z,100266.12
2022-09-12T21:23:45.236Z,100259.03
2022-09-12T21:26:15.554Z,100258.53
2022-09-12T21:28:43.481Z,100253.59
2022-09-12T21:31:11.947Z,100249.53
2022-09-12T21:33:40.480Z,100256.94
2022-09-12T21:36:09.652Z,100248.34
2022-09-12T21:38:37.893Z,100246.94
2022-09-12T21:41:08.809Z,100245.56
2022-09-12T21:43:38.666Z,100237.66
2022-09-12T21:46:08.245Z,100236.25
2022-09-12T21:48:37.781Z,100229.34
2022-09-12T21:51:06.027Z,100237.59
2022-09-12T21:53:34.359Z,100242.41
2022-09-12T21:56:03.476Z,100235.50
2022-09-12T21:58:31.348Z,100232.12
2022-09-12T22:01:01.283Z,100224.22
2022-09-12T22:03:30.534Z,100226.34
2022-09-12T22:06:00.452Z,100220.28
2022-09-12T22:08:29.540Z,100222.28
2022-09-12T22:11:02.328Z,100219.94
2022-09-12T22:13:32.397Z,100209.31
2022-09-12T22:16:02.827Z,100211.31
2022-09-12T22:18:32.826Z,100216.16
2022-09-12T22:21:02.574Z,100212.94
2022-09-12T22:23:48.388Z,100205.88
2022-09-12T22:26:17.274Z,100207.00
2022-09-12T22:28:47.177Z,100208.16
2022-09-12T22:31:17.973Z,100205.78
2022-09-12T22:33:46.450Z,100199.84
2022-09-12T22:36:14.629Z,100203.50
2022-09-12T22:38:42.558Z,100195.59
2022-09-12T22:41:12.454Z,100186.84
2022-09-12T22:43:40.665Z,100183.47
2022-09-12T22:46:10.222Z,100180.25
2022-09-12T22:48:40.346Z,100179.41
2022-09-12T22:51:08.309Z,100176.88
2022-09-12T22:53:36.981Z,100176.03
2022-09-12T22:56:06.602Z,100177.88
2022-09-12T22:58:37.308Z,100177.88
2022-09-12T23:01:06.982Z,100183.25
2022-09-12T23:03:35.424Z,100179.87
2022-09-12T23:06:05.091Z,100170.13
2022-09-12T23:08:34.981Z,100170.28
2022-09-12T23:11:03.450Z,100166.75
2022-09-12T23:13:32.174Z,100170.41
2022-09-12T23:16:01.305Z,100163.50
2022-09-12T23:18:29.464Z,100163.81
2022-09-12T23:20:59.332Z,100163.28
2022-09-12T23:23:29.257Z,100168.09
2022-09-12T23:26:05.653Z,100155.13
2022-09-12T23:28:34.709Z,100156.25
2022-09-12T23:31:02.822Z,100149.81
2022-09-12T23:33:32.231Z,100150.97
2022-09-12T23:36:01.261Z,100149.56
2022-09-12T23:38:31.414Z,100139.28
2022-09-12T23:41:00.048Z,100144.09
2022-09-12T23:43:28.662Z,100141.72
2022-09-12T23:45:56.540Z,100139.03
2022-09-12T23:48:24.890Z,100132.69
2022-09-12T23:50:53.806Z,100139.03
2022-09-12T23:53:22.870Z,100136.34
2022-09-12T23:55:52.661Z,100140.88
2022-09-12T23:58:21.576Z,100132.84
